sensor_id;sensor_type;location;lat;lon;timestamp;temperature;humidity
59881;DHT22;45751;51.380;10.326;2022-12-18T00:01:34;-7.80;93.50
59881;DHT22;45751;51.380;10.326;2022-12-18T00:04:04;-7.80;93.40
59881;DHT22;45751;51.380;10.326;2022-12-18T00:06:32;-7.80;93.60
59881;DHT22;45751;51.380;10.326;2022-12-18T00:09:03;-7.80;94.10
59881;DHT22;45751;51.380;10.326;2022-12-18T00:11:31;-7.80;94.70
59881;DHT22;45751;51.380;10.326;2022-12-18T00:13:59;-7.70;94.70
59881;DHT22;45751;51.380;10.326;2022-12-18T00:16:28;-7.80;94.10
59881;DHT22;45751;51.380;10.326;2022-12-18T00:18:59;-7.80;93.30
59881;DHT22;45751;51.380;10.326;2022-12-18T00:21:27;-7.90;93.00
59881;DHT22;45751;51.380;10.326;2022-12-18T00:23:57;-7.90;92.80
59881;DHT22;45751;51.380;10.326;2022-12-18T00:26:27;-7.90;92.70
59881;DHT22;45751;51.380;10.326;2022-12-18T00:29:12;-8.00;92.70
59881;DHT22;45751;51.380;10.326;2022-12-18T00:31:43;-8.00;92.90
59881;DHT22;45751;51.380;10.326;2022-12-18T00:34:13;-8.00;93.30
59881;DHT22;45751;51.380;10.326;2022-12-18T00:36:40;-8.00;93.20
59881;DHT22;45751;51.380;10.326;2022-12-18T00:39:11;-8.10;92.90
59881;DHT22;45751;51.380;10.326;2022-12-18T00:41:43;-8.10;92.90
59881;DHT22;45751;51.380;10.326;2022-12-18T00:44:31;-8.10;93.70
59881;DHT22;45751;51.380;10.326;2022-12-18T00:46:59;-8.10;93.70
59881;DHT22;45751;51.380;10.326;2022-12-18T00:49:26;-8.10;94.10
59881;DHT22;45751;51.380;10.326;2022-12-18T00:51:54;-8.10;94.30
59881;DHT22;45751;51.380;10.326;2022-12-18T00:54:23;-8.10;93.80
59881;DHT22;45751;51.380;10.326;2022-12-18T00:56:50;-8.10;94.20
59881;DHT22;45751;51.380;10.326;2022-12-18T00:59:18;-8.10;94.50
59881;DHT22;45751;51.380;10.326;2022-12-18T01:01:47;-8.10;94.50
59881;DHT22;45751;51.380;10.326;2022-12-18T01:04:14;-8.10;94.60
59881;DHT22;45751;51.380;10.326;2022-12-18T01:06:44;-8.10;94.40
59881;DHT22;45751;51.380;10.326;2022-12-18T01:09:12;-8.10;94.10
59881;DHT22;45751;51.380;10.326;2022-12-18T01:11:41;-8.10;94.30
59881;DHT22;45751;51.380;10.326;2022-12-18T01:14:10;-8.10;94.60
59881;DHT22;45751;51.380;10.326;2022-12-18T01:16:37;-8.10;94.40
59881;DHT22;45751;51.380;10.326;2022-12-18T01:19:05;-8.10;93.90
59881;DHT22;45751;51.380;10.326;2022-12-18T01:21:32;-8.20;93.80
59881;DHT22;45751;51.380;10.326;2022-12-18T01:24:03;-8.20;94.50
59881;DHT22;45751;51.380;10.326;2022-12-18T01:26:33;-8.20;94.60
59881;DHT22;45751;51.380;10.326;2022-12-18T01:28:59;-8.20;94.30
59881;DHT22;45751;51.380;10.326;2022-12-18T01:31:31;-8.20;94.20
59881;DHT22;45751;51.380;10.326;2022-12-18T01:34:02;-8.20;94.20
59881;DHT22;45751;51.380;10.326;2022-12-18T01:36:36;-8.20;93.80
59881;DHT22;45751;51.380;10.326;2022-12-18T01:39:13;-8.30;93.50
59881;DHT22;45751;51.380;10.326;2022-12-18T01:41:44;-8.30;93.20
59881;DHT22;45751;51.380;10.326;2022-12-18T01:49:51;-8.40;93.60
59881;DHT22;45751;51.380;10.326;2022-12-18T01:52:20;-8.40;94.30
59881;DHT22;45751;51.380;10.326;2022-12-18T01:54:48;-8.40;94.70
59881;DHT22;45751;51.380;10.326;2022-12-18T01:57:20;-8.40;94.50
59881;DHT22;45751;51.380;10.326;2022-12-18T01:59:50;-8.30;95.00
59881;DHT22;45751;51.380;10.326;2022-12-18T02:02:21;-8.30;94.90
59881;DHT22;45751;51.380;10.326;2022-12-18T02:04:48;-8.40;94.60
59881;DHT22;45751;51.380;10.326;2022-12-18T02:07:37;-8.40;95.10
59881;DHT22;45751;51.380;10.326;2022-12-18T02:10:22;-8.30;95.30
59881;DHT22;45751;51.380;10.326;2022-12-18T02:18:28;-8.20;96.40
59881;DHT22;45751;51.380;10.326;2022-12-18T02:26:27;-8.20;95.80
59881;DHT22;45751;51.380;10.326;2022-12-18T02:29:02;-8.30;95.60
59881;DHT22;45751;51.380;10.326;2022-12-18T02:31:39;-8.30;95.00
59881;DHT22;45751;51.380;10.326;2022-12-18T02:34:08;-8.40;94.60
59881;DHT22;45751;51.380;10.326;2022-12-18T02:36:40;-8.40;94.60
59881;DHT22;45751;51.380;10.326;2022-12-18T02:39:13;-8.40;95.40
59881;DHT22;45751;51.380;10.326;2022-12-18T02:41:55;-8.40;95.80
59881;DHT22;45751;51.380;10.326;2022-12-18T02:44:25;-8.40;96.20
59881;DHT22;45751;51.380;10.326;2022-12-18T02:46:53;-8.40;96.30
59881;DHT22;45751;51.380;10.326;2022-12-18T03:00:43;-8.50;95.80
59881;DHT22;45751;51.380;10.326;2022-12-18T03:03:39;-8.50;95.40
59881;DHT22;45751;51.380;10.326;2022-12-18T03:06:12;-8.50;95.60
59881;DHT22;45751;51.380;10.326;2022-12-18T03:08:46;-8.50;96.10
59881;DHT22;45751;51.380;10.326;2022-12-18T03:11:16;-8.50;96.40
59881;DHT22;45751;51.380;10.326;2022-12-18T03:14:07;-8.50;96.40
59881;DHT22;45751;51.380;10.326;2022-12-18T03:16:35;-8.50;96.30
59881;DHT22;45751;51.380;10.326;2022-12-18T03:19:09;-8.50;96.00
59881;DHT22;45751;51.380;10.326;2022-12-18T03:21:47;-8.50;95.60
59881;DHT22;45751;51.380;10.326;2022-12-18T03:24:18;-8.60;95.50
59881;DHT22;45751;51.380;10.326;2022-12-18T03:26:53;-8.60;95.70
59881;DHT22;45751;51.380;10.326;2022-12-18T03:29:44;-8.60;96.00
59881;DHT22;45751;51.380;10.326;2022-12-18T03:32:25;-8.60;95.70
59881;DHT22;45751;51.380;10.326;2022-12-18T03:34:58;-8.70;95.60
59881;DHT22;45751;51.380;10.326;2022-12-18T03:37:31;-8.70;95.20
59881;DHT22;45751;51.380;10.326;2022-12-18T03:39:59;-8.70;95.00
59881;DHT22;45751;51.380;10.326;2022-12-18T03:42:32;-8.70;95.30
59881;DHT22;45751;51.380;10.326;2022-12-18T03:45:32;-8.70;95.20
59881;DHT22;45751;51.380;10.326;2022-12-18T03:48:19;-8.70;94.90
59881;DHT22;45751;51.380;10.326;2022-12-18T03:53:39;-8.80;94.30
59881;DHT22;45751;51.380;10.326;2022-12-18T03:56:11;-8.90;94.20
59881;DHT22;45751;51.380;10.326;2022-12-18T03:58:43;-9.00;94.10
59881;DHT22;45751;51.380;10.326;2022-12-18T04:01:25;-9.00;94.00
59881;DHT22;45751;51.380;10.326;2022-12-18T04:04:00;-9.00;93.90
59881;DHT22;45751;51.380;10.326;2022-12-18T04:06:32;-9.10;93.90
59881;DHT22;45751;51.380;10.326;2022-12-18T04:09:04;-9.10;94.40
59881;DHT22;45751;51.380;10.326;2022-12-18T04:11:35;-9.10;94.90
59881;DHT22;45751;51.380;10.326;2022-12-18T04:14:05;-9.00;95.00
59881;DHT22;45751;51.380;10.326;2022-12-18T04:16:33;-9.00;95.00
59881;DHT22;45751;51.380;10.326;2022-12-18T04:19:04;-9.00;94.90
59881;DHT22;45751;51.380;10.326;2022-12-18T04:21:37;-9.00;95.00
59881;DHT22;45751;51.380;10.326;2022-12-18T04:24:08;-9.00;95.30
59881;DHT22;45751;51.380;10.326;2022-12-18T04:26:41;-9.00;95.40
59881;DHT22;45751;51.380;10.326;2022-12-18T04:29:15;-9.00;95.40
59881;DHT22;45751;51.380;10.326;2022-12-18T04:31:43;-9.10;95.40
59881;DHT22;45751;51.380;10.326;2022-12-18T04:34:10;-9.10;95.30
59881;DHT22;45751;51.380;10.326;2022-12-18T04:36:46;-9.10;95.30
59881;DHT22;45751;51.380;10.326;2022-12-18T04:39:17;-9.10;95.30
59881;DHT22;45751;51.380;10.326;2022-12-18T04:41:45;-9.10;95.20
59881;DHT22;45751;51.380;10.326;2022-12-18T04:44:12;-9.20;94.90
59881;DHT22;45751;51.380;10.326;2022-12-18T04:46:41;-9.20;94.80
59881;DHT22;45751;51.380;10.326;2022-12-18T04:49:08;-9.20;94.70
59881;DHT22;45751;51.380;10.326;2022-12-18T04:51:37;-9.30;94.40
59881;DHT22;45751;51.380;10.326;2022-12-18T04:54:04;-9.30;94.30
59881;DHT22;45751;51.380;10.326;2022-12-18T04:56:32;-9.30;94.20
59881;DHT22;45751;51.380;10.326;2022-12-18T04:58:59;-9.40;94.00
59881;DHT22;45751;51.380;10.326;2022-12-18T05:01:26;-9.40;93.90
59881;DHT22;45751;51.380;10.326;2022-12-18T05:04:01;-9.40;93.90
59881;DHT22;45751;51.380;10.326;2022-12-18T05:06:28;-9.50;93.80
59881;DHT22;45751;51.380;10.326;2022-12-18T05:08:59;-9.50;93.70
59881;DHT22;45751;51.380;10.326;2022-12-18T05:11:26;-9.50;93.50
59881;DHT22;45751;51.380;10.326;2022-12-18T05:13:52;-9.50;93.50
59881;DHT22;45751;51.380;10.326;2022-12-18T05:16:21;-9.60;93.50
59881;DHT22;45751;51.380;10.326;2022-12-18T05:18:50;-9.60;93.50
59881;DHT22;45751;51.380;10.326;2022-12-18T05:21:17;-9.60;93.40
59881;DHT22;45751;51.380;10.326;2022-12-18T05:23:46;-9.60;93.40
59881;DHT22;45751;51.380;10.326;2022-12-18T05:26:16;-9.60;93.60
59881;DHT22;45751;51.380;10.326;2022-12-18T05:28:44;-9.70;93.60
59881;DHT22;45751;51.380;10.326;2022-12-18T05:31:14;-9.70;93.60
59881;DHT22;45751;51.380;10.326;2022-12-18T05:33:41;-9.70;93.60
59881;DHT22;45751;51.380;10.326;2022-12-18T05:36:09;-9.70;93.60
59881;DHT22;45751;51.380;10.326;2022-12-18T05:38:41;-9.70;93.60
59881;DHT22;45751;51.380;10.326;2022-12-18T05:41:09;-9.70;93.60
59881;DHT22;45751;51.380;10.326;2022-12-18T05:43:37;-9.70;93.60
59881;DHT22;45751;51.380;10.326;2022-12-18T05:46:08;-9.80;93.50
59881;DHT22;45751;51.380;10.326;2022-12-18T05:48:35;-9.70;93.60
59881;DHT22;45751;51.380;10.326;2022-12-18T05:51:05;-9.60;93.80
59881;DHT22;45751;51.380;10.326;2022-12-18T05:53:37;-9.80;93.90
59881;DHT22;45751;51.380;10.326;2022-12-18T05:56:07;-9.80;93.90
59881;DHT22;45751;51.380;10.326;2022-12-18T05:58:36;-9.80;93.80
59881;DHT22;45751;51.380;10.326;2022-12-18T06:01:22;-9.80;93.70
59881;DHT22;45751;51.380;10.326;2022-12-18T06:03:51;-9.80;93.80
59881;DHT22;45751;51.380;10.326;2022-12-18T06:06:27;-9.80;93.80
59881;DHT22;45751;51.380;10.326;2022-12-18T06:08:58;-9.80;93.60
59881;DHT22;45751;51.380;10.326;2022-12-18T06:11:26;-9.80;93.80
59881;DHT22;45751;51.380;10.326;2022-12-18T06:13:54;-9.80;94.00
59881;DHT22;45751;51.380;10.326;2022-12-18T06:16:25;-9.80;94.30
59881;DHT22;45751;51.380;10.326;2022-12-18T06:18:59;-9.80;94.80
59881;DHT22;45751;51.380;10.326;2022-12-18T06:21:29;-9.70;95.20
59881;DHT22;45751;51.380;10.326;2022-12-18T06:24:00;-9.70;95.50
59881;DHT22;45751;51.380;10.326;2022-12-18T06:26:27;-9.70;95.70
59881;DHT22;45751;51.380;10.326;2022-12-18T06:28:54;-9.70;95.40
59881;DHT22;45751;51.380;10.326;2022-12-18T06:31:22;-9.70;95.50
59881;DHT22;45751;51.380;10.326;2022-12-18T06:33:49;-9.70;95.30
59881;DHT22;45751;51.380;10.326;2022-12-18T06:36:16;-9.70;94.90
59881;DHT22;45751;51.380;10.326;2022-12-18T06:38:45;-9.70;94.50
59881;DHT22;45751;51.380;10.326;2022-12-18T06:41:18;-9.80;94.20
59881;DHT22;45751;51.380;10.326;2022-12-18T06:43:47;-9.80;94.10
59881;DHT22;45751;51.380;10.326;2022-12-18T06:46:14;-9.80;93.90
59881;DHT22;45751;51.380;10.326;2022-12-18T06:48:42;-9.90;93.80
59881;DHT22;45751;51.380;10.326;2022-12-18T06:51:19;-9.90;93.70
59881;DHT22;45751;51.380;10.326;2022-12-18T06:53:47;-10.00;93.50
59881;DHT22;45751;51.380;10.326;2022-12-18T06:56:17;-10.00;93.40
59881;DHT22;45751;51.380;10.326;2022-12-18T06:58:44;-10.00;93.40
59881;DHT22;45751;51.380;10.326;2022-12-18T07:01:12;-10.10;93.20
59881;DHT22;45751;51.380;10.326;2022-12-18T07:03:41;-10.10;93.20
59881;DHT22;45751;51.380;10.326;2022-12-18T07:06:14;-10.10;93.10
59881;DHT22;45751;51.380;10.326;2022-12-18T07:08:45;-10.10;93.20
59881;DHT22;45751;51.380;10.326;2022-12-18T07:11:12;-10.10;93.30
59881;DHT22;45751;51.380;10.326;2022-12-18T07:13:39;-10.20;93.30
59881;DHT22;45751;51.380;10.326;2022-12-18T07:16:11;-10.20;93.40
59881;DHT22;45751;51.380;10.326;2022-12-18T07:18:48;-10.20;93.50
59881;DHT22;45751;51.380;10.326;2022-12-18T07:21:17;-10.20;93.60
59881;DHT22;45751;51.380;10.326;2022-12-18T07:23:47;-10.20;93.50
59881;DHT22;45751;51.380;10.326;2022-12-18T07:26:17;-10.20;93.50
59881;DHT22;45751;51.380;10.326;2022-12-18T07:28:44;-10.20;93.50
59881;DHT22;45751;51.380;10.326;2022-12-18T07:31:19;-10.30;93.50
59881;DHT22;45751;51.380;10.326;2022-12-18T07:33:48;-10.30;93.50
59881;DHT22;45751;51.380;10.326;2022-12-18T07:36:16;-10.30;93.60
59881;DHT22;45751;51.380;10.326;2022-12-18T07:38:47;-10.30;93.60
59881;DHT22;45751;51.380;10.326;2022-12-18T07:41:16;-10.30;93.60
59881;DHT22;45751;51.380;10.326;2022-12-18T07:43:43;-10.30;93.70
59881;DHT22;45751;51.380;10.326;2022-12-18T07:46:11;-10.30;93.70
59881;DHT22;45751;51.380;10.326;2022-12-18T07:48:41;-10.30;93.80
59881;DHT22;45751;51.380;10.326;2022-12-18T07:51:11;-10.30;93.80
59881;DHT22;45751;51.380;10.326;2022-12-18T07:53:42;-10.30;94.10
59881;DHT22;45751;51.380;10.326;2022-12-18T07:56:11;-10.30;94.10
59881;DHT22;45751;51.380;10.326;2022-12-18T07:58:56;-10.20;94.20
59881;DHT22;45751;51.380;10.326;2022-12-18T08:01:27;-10.20;94.40
59881;DHT22;45751;51.380;10.326;2022-12-18T08:03:55;-10.20;94.90
59881;DHT22;45751;51.380;10.326;2022-12-18T08:06:21;-10.10;95.30
59881;DHT22;45751;51.380;10.326;2022-12-18T08:08:53;-10.10;95.50
59881;DHT22;45751;51.380;10.326;2022-12-18T08:11:21;-10.10;95.70
59881;DHT22;45751;51.380;10.326;2022-12-18T08:13:48;-10.00;96.10
59881;DHT22;45751;51.380;10.326;2022-12-18T08:16:17;-10.00;96.30
59881;DHT22;45751;51.380;10.326;2022-12-18T08:18:45;-9.90;96.50
59881;DHT22;45751;51.380;10.326;2022-12-18T08:21:18;-9.90;96.70
59881;DHT22;45751;51.380;10.326;2022-12-18T08:23:49;-9.90;96.90
59881;DHT22;45751;51.380;10.326;2022-12-18T08:26:18;-9.80;97.00
59881;DHT22;45751;51.380;10.326;2022-12-18T08:28:46;-9.80;97.10
59881;DHT22;45751;51.380;10.326;2022-12-18T08:31:19;-9.70;97.00
59881;DHT22;45751;51.380;10.326;2022-12-18T08:33:49;-9.70;97.00
59881;DHT22;45751;51.380;10.326;2022-12-18T08:36:16;-9.70;97.10
59881;DHT22;45751;51.380;10.326;2022-12-18T08:38:46;-9.70;97.30
59881;DHT22;45751;51.380;10.326;2022-12-18T08:41:14;-9.70;97.40
59881;DHT22;45751;51.380;10.326;2022-12-18T08:43:43;-9.60;97.60
59881;DHT22;45751;51.380;10.326;2022-12-18T08:46:38;-9.60;97.70
59881;DHT22;45751;51.380;10.326;2022-12-18T08:49:07;-9.60;98.00
59881;DHT22;45751;51.380;10.326;2022-12-18T08:51:34;-9.60;98.20
59881;DHT22;45751;51.380;10.326;2022-12-18T08:54:04;-9.50;98.50
59881;DHT22;45751;51.380;10.326;2022-12-18T08:56:33;-9.50;98.70
59881;DHT22;45751;51.380;10.326;2022-12-18T08:59:02;-9.50;99.00
59881;DHT22;45751;51.380;10.326;2022-12-18T09:01:30;-9.40;99.30
59881;DHT22;45751;51.380;10.326;2022-12-18T09:03:58;-9.40;99.50
59881;DHT22;45751;51.380;10.326;2022-12-18T09:06:27;-9.40;99.80
59881;DHT22;45751;51.380;10.326;2022-12-18T09:08:54;-9.40;99.90
59881;DHT22;45751;51.380;10.326;2022-12-18T09:11:25;-9.30;99.90
59881;DHT22;45751;51.380;10.326;2022-12-18T09:13:55;-9.30;99.90
59881;DHT22;45751;51.380;10.326;2022-12-18T09:16:23;-9.20;99.90
59881;DHT22;45751;51.380;10.326;2022-12-18T09:18:59;-9.20;99.90
59881;DHT22;45751;51.380;10.326;2022-12-18T09:21:29;-9.20;99.90
59881;DHT22;45751;51.380;10.326;2022-12-18T09:24:05;-9.10;99.90
59881;DHT22;45751;51.380;10.326;2022-12-18T09:26:35;-9.10;99.90
59881;DHT22;45751;51.380;10.326;2022-12-18T09:29:03;-9.00;99.90
59881;DHT22;45751;51.380;10.326;2022-12-18T09:31:30;-9.00;99.90
59881;DHT22;45751;51.380;10.326;2022-12-18T09:33:57;-8.90;99.90
59881;DHT22;45751;51.380;10.326;2022-12-18T09:36:25;-8.90;99.90
59881;DHT22;45751;51.380;10.326;2022-12-18T09:38:52;-8.90;99.90
59881;DHT22;45751;51.380;10.326;2022-12-18T09:46:40;-8.80;99.90
59881;DHT22;45751;51.380;10.326;2022-12-18T09:49:15;-8.70;99.90
59881;DHT22;45751;51.380;10.326;2022-12-18T09:54:38;-8.60;99.90
59881;DHT22;45751;51.380;10.326;2022-12-18T09:57:15;-8.50;99.90
59881;DHT22;45751;51.380;10.326;2022-12-18T09:59:47;-8.40;99.90
59881;DHT22;45751;51.380;10.326;2022-12-18T10:02:24;-8.40;99.90
59881;DHT22;45751;51.380;10.326;2022-12-18T10:05:14;-8.10;99.90
59881;DHT22;45751;51.380;10.326;2022-12-18T10:08:04;-8.20;99.90
59881;DHT22;45751;51.380;10.326;2022-12-18T10:10:50;-8.10;99.90
59881;DHT22;45751;51.380;10.326;2022-12-18T10:13:33;-8.00;99.90
59881;DHT22;45751;51.380;10.326;2022-12-18T10:16:21;-7.90;99.90
59881;DHT22;45751;51.380;10.326;2022-12-18T10:21:37;-7.70;99.90
59881;DHT22;45751;51.380;10.326;2022-12-18T10:26:48;-7.60;99.90
59881;DHT22;45751;51.380;10.326;2022-12-18T10:29:16;-7.50;99.90
59881;DHT22;45751;51.380;10.326;2022-12-18T10:31:45;-7.50;99.90
59881;DHT22;45751;51.380;10.326;2022-12-18T10:34:12;-7.40;99.90
59881;DHT22;45751;51.380;10.326;2022-12-18T10:36:44;-7.40;99.90
59881;DHT22;45751;51.380;10.326;2022-12-18T10:41:43;-7.30;99.90
59881;DHT22;45751;51.380;10.326;2022-12-18T10:44:19;-7.30;99.90
59881;DHT22;45751;51.380;10.326;2022-12-18T10:46:50;-7.30;99.90
59881;DHT22;45751;51.380;10.326;2022-12-18T10:49:26;-7.30;99.90
59881;DHT22;45751;51.380;10.326;2022-12-18T10:52:21;-7.20;99.90
59881;DHT22;45751;51.380;10.326;2022-12-18T10:55:01;-7.20;99.90
59881;DHT22;45751;51.380;10.326;2022-12-18T10:57:34;-7.20;99.90
59881;DHT22;45751;51.380;10.326;2022-12-18T11:00:28;-7.10;99.90
59881;DHT22;45751;51.380;10.326;2022-12-18T11:02:57;-7.10;99.90
59881;DHT22;45751;51.380;10.326;2022-12-18T11:05:34;-7.00;99.90
59881;DHT22;45751;51.380;10.326;2022-12-18T11:08:05;-7.00;99.90
59881;DHT22;45751;51.380;10.326;2022-12-18T11:10:38;-7.00;99.90
59881;DHT22;45751;51.380;10.326;2022-12-18T11:13:20;-6.90;99.90
59881;DHT22;45751;51.380;10.326;2022-12-18T11:15:48;-6.90;99.90
59881;DHT22;45751;51.380;10.326;2022-12-18T11:18:34;-6.90;99.90
59881;DHT22;45751;51.380;10.326;2022-12-18T11:21:08;-6.80;99.90
59881;DHT22;45751;51.380;10.326;2022-12-18T11:23:52;-6.80;99.90
59881;DHT22;45751;51.380;10.326;2022-12-18T11:26:20;-6.80;99.90
59881;DHT22;45751;51.380;10.326;2022-12-18T11:28:51;-6.70;99.90
59881;DHT22;45751;51.380;10.326;2022-12-18T11:31:27;-6.60;99.90
59881;DHT22;45751;51.380;10.326;2022-12-18T11:36:46;-6.50;99.90
59881;DHT22;45751;51.380;10.326;2022-12-18T11:39:45;-6.30;99.90
59881;DHT22;45751;51.380;10.326;2022-12-18T11:42:35;-6.20;99.90
59881;DHT22;45751;51.380;10.326;2022-12-18T11:50:25;-5.80;99.90
59881;DHT22;45751;51.380;10.326;2022-12-18T11:52:54;-5.60;99.90
59881;DHT22;45751;51.380;10.326;2022-12-18T12:07:31;-5.10;99.90
59881;DHT22;45751;51.380;10.326;2022-12-18T12:15:45;-4.80;99.90
59881;DHT22;45751;51.380;10.326;2022-12-18T12:27:06;-4.70;99.90
59881;DHT22;45751;51.380;10.326;2022-12-18T12:32:39;-4.60;99.90
59881;DHT22;45751;51.380;10.326;2022-12-18T12:40:34;-4.60;99.90
59881;DHT22;45751;51.380;10.326;2022-12-18T12:43:37;-4.60;99.90
59881;DHT22;45751;51.380;10.326;2022-12-18T12:46:17;-4.60;99.90
59881;DHT22;45751;51.380;10.326;2022-12-18T12:48:50;-4.60;99.90
59881;DHT22;45751;51.380;10.326;2022-12-18T12:51:20;-4.60;99.90
59881;DHT22;45751;51.380;10.326;2022-12-18T12:53:48;-4.50;99.90
59881;DHT22;45751;51.380;10.326;2022-12-18T12:56:18;-4.50;99.90
59881;DHT22;45751;51.380;10.326;2022-12-18T13:01:59;-4.50;99.90
59881;DHT22;45751;51.380;10.326;2022-12-18T13:07:45;-4.50;99.90
59881;DHT22;45751;51.380;10.326;2022-12-18T13:12:53;-4.50;99.90
59881;DHT22;45751;51.380;10.326;2022-12-18T13:15:37;-4.50;99.90
59881;DHT22;45751;51.380;10.326;2022-12-18T13:18:21;-4.50;99.90
59881;DHT22;45751;51.380;10.326;2022-12-18T13:23:39;-4.60;99.80
59881;DHT22;45751;51.380;10.326;2022-12-18T13:31:15;-4.70;99.90
59881;DHT22;45751;51.380;10.326;2022-12-18T13:34:28;-4.70;99.90
59881;DHT22;45751;51.380;10.326;2022-12-18T13:40:53;-4.80;99.60
59881;DHT22;45751;51.380;10.326;2022-12-18T13:45:59;-4.80;99.60
59881;DHT22;45751;51.380;10.326;2022-12-18T13:48:32;-4.90;99.60
59881;DHT22;45751;51.380;10.326;2022-12-18T13:51:10;-4.90;99.60
59881;DHT22;45751;51.380;10.326;2022-12-18T13:53:47;-4.90;99.60
59881;DHT22;45751;51.380;10.326;2022-12-18T13:56:20;-5.00;99.60
59881;DHT22;45751;51.380;10.326;2022-12-18T14:04:29;-5.00;99.50
59881;DHT22;45751;51.380;10.326;2022-12-18T14:07:10;-5.10;99.50
59881;DHT22;45751;51.380;10.326;2022-12-18T14:09:43;-5.10;99.60
59881;DHT22;45751;51.380;10.326;2022-12-18T14:12:22;-5.10;99.70
59881;DHT22;45751;51.380;10.326;2022-12-18T14:15:31;-5.20;99.90
59881;DHT22;45751;51.380;10.326;2022-12-18T14:18:22;-5.20;99.90
59881;DHT22;45751;51.380;10.326;2022-12-18T14:20:59;-5.20;99.90
59881;DHT22;45751;51.380;10.326;2022-12-18T14:23:36;-5.20;99.90
59881;DHT22;45751;51.380;10.326;2022-12-18T14:26:26;-5.20;99.90
59881;DHT22;45751;51.380;10.326;2022-12-18T14:28:58;-5.30;99.70
59881;DHT22;45751;51.380;10.326;2022-12-18T14:31:29;-5.30;99.60
59881;DHT22;45751;51.380;10.326;2022-12-18T14:33:58;-5.40;99.50
59881;DHT22;45751;51.380;10.326;2022-12-18T14:36:29;-5.40;99.40
59881;DHT22;45751;51.380;10.326;2022-12-18T14:38:57;-5.40;99.40
59881;DHT22;45751;51.380;10.326;2022-12-18T14:41:27;-5.40;99.40
59881;DHT22;45751;51.380;10.326;2022-12-18T14:43:55;-5.50;99.60
59881;DHT22;45751;51.380;10.326;2022-12-18T14:51:59;-5.50;99.90
59881;DHT22;45751;51.380;10.326;2022-12-18T14:54:28;-5.50;99.90
59881;DHT22;45751;51.380;10.326;2022-12-18T14:57:04;-5.60;99.90
59881;DHT22;45751;51.380;10.326;2022-12-18T14:59:32;-5.60;99.90
59881;DHT22;45751;51.380;10.326;2022-12-18T15:04:42;-5.60;99.90
59881;DHT22;45751;51.380;10.326;2022-12-18T15:07:14;-5.60;99.90
59881;DHT22;45751;51.380;10.326;2022-12-18T15:10:21;-5.60;99.90
59881;DHT22;45751;51.380;10.326;2022-12-18T15:26:03;-5.70;99.90
59881;DHT22;45751;51.380;10.326;2022-12-18T15:28:37;-5.70;99.90
59881;DHT22;45751;51.380;10.326;2022-12-18T15:36:22;-5.70;99.90
59881;DHT22;45751;51.380;10.326;2022-12-18T15:38:55;-5.80;99.90
59881;DHT22;45751;51.380;10.326;2022-12-18T15:41:34;-5.80;99.90
59881;DHT22;45751;51.380;10.326;2022-12-18T15:44:21;-5.80;99.90
59881;DHT22;45751;51.380;10.326;2022-12-18T15:46:48;-5.80;99.90
59881;DHT22;45751;51.380;10.326;2022-12-18T15:49:16;-5.80;99.90
59881;DHT22;45751;51.380;10.326;2022-12-18T15:51:43;-5.80;99.90
59881;DHT22;45751;51.380;10.326;2022-12-18T15:54:16;-5.80;99.90
59881;DHT22;45751;51.380;10.326;2022-12-18T15:56:43;-5.90;99.90
59881;DHT22;45751;51.380;10.326;2022-12-18T15:59:31;-5.80;99.90
59881;DHT22;45751;51.380;10.326;2022-12-18T16:01:58;-5.80;99.90
59881;DHT22;45751;51.380;10.326;2022-12-18T16:04:26;-5.90;99.90
59881;DHT22;45751;51.380;10.326;2022-12-18T16:06:55;-5.80;99.90
59881;DHT22;45751;51.380;10.326;2022-12-18T16:09:40;-5.80;99.90
59881;DHT22;45751;51.380;10.326;2022-12-18T16:12:18;-5.90;99.90
59881;DHT22;45751;51.380;10.326;2022-12-18T16:14:46;-5.90;99.90
59881;DHT22;45751;51.380;10.326;2022-12-18T16:17:15;-5.90;99.90
59881;DHT22;45751;51.380;10.326;2022-12-18T16:19:44;-5.80;99.90
59881;DHT22;45751;51.380;10.326;2022-12-18T16:22:20;-5.80;99.90
59881;DHT22;45751;51.380;10.326;2022-12-18T16:24:50;-5.80;99.90
59881;DHT22;45751;51.380;10.326;2022-12-18T16:27:18;-5.80;99.90
59881;DHT22;45751;51.380;10.326;2022-12-18T16:29:48;-5.90;99.90
59881;DHT22;45751;51.380;10.326;2022-12-18T16:32:17;-5.90;99.90
59881;DHT22;45751;51.380;10.326;2022-12-18T16:34:45;-5.80;99.90
59881;DHT22;45751;51.380;10.326;2022-12-18T16:37:15;-5.80;99.90
59881;DHT22;45751;51.380;10.326;2022-12-18T16:39:42;-5.80;99.90
59881;DHT22;45751;51.380;10.326;2022-12-18T16:42:17;-5.80;99.90
59881;DHT22;45751;51.380;10.326;2022-12-18T16:44:49;-5.90;99.90
59881;DHT22;45751;51.380;10.326;2022-12-18T16:47:16;-5.80;99.90
59881;DHT22;45751;51.380;10.326;2022-12-18T16:49:45;-5.80;99.90
59881;DHT22;45751;51.380;10.326;2022-12-18T16:52:12;-5.80;99.90
59881;DHT22;45751;51.380;10.326;2022-12-18T16:54:39;-5.90;99.90
59881;DHT22;45751;51.380;10.326;2022-12-18T16:57:08;-5.80;99.90
59881;DHT22;45751;51.380;10.326;2022-12-18T16:59:39;-5.80;99.90
59881;DHT22;45751;51.380;10.326;2022-12-18T17:02:44;-5.80;99.90
59881;DHT22;45751;51.380;10.326;2022-12-18T17:05:06;-5.80;99.90
59881;DHT22;45751;51.380;10.326;2022-12-18T17:07:33;-5.80;99.90
59881;DHT22;45751;51.380;10.326;2022-12-18T17:10:02;-5.80;99.90
59881;DHT22;45751;51.380;10.326;2022-12-18T17:12:30;-5.80;99.90
59881;DHT22;45751;51.380;10.326;2022-12-18T17:14:57;-5.80;99.90
59881;DHT22;45751;51.380;10.326;2022-12-18T17:17:27;-5.70;99.90
59881;DHT22;45751;51.380;10.326;2022-12-18T17:19:54;-5.70;99.90
59881;DHT22;45751;51.380;10.326;2022-12-18T17:22:21;-5.80;99.90
59881;DHT22;45751;51.380;10.326;2022-12-18T17:24:50;-5.70;99.90
59881;DHT22;45751;51.380;10.326;2022-12-18T17:27:17;-5.70;99.90
59881;DHT22;45751;51.380;10.326;2022-12-18T17:29:46;-5.70;99.90
59881;DHT22;45751;51.380;10.326;2022-12-18T17:32:15;-5.70;99.90
59881;DHT22;45751;51.380;10.326;2022-12-18T17:34:42;-5.70;99.90
59881;DHT22;45751;51.380;10.326;2022-12-18T17:37:09;-5.70;99.90
59881;DHT22;45751;51.380;10.326;2022-12-18T17:39:36;-5.70;99.90
59881;DHT22;45751;51.380;10.326;2022-12-18T17:42:04;-5.70;99.90
59881;DHT22;45751;51.380;10.326;2022-12-18T17:44:34;-5.70;99.90
59881;DHT22;45751;51.380;10.326;2022-12-18T17:47:02;-5.60;99.90
59881;DHT22;45751;51.380;10.326;2022-12-18T17:49:30;-5.60;99.90
59881;DHT22;45751;51.380;10.326;2022-12-18T17:51:57;-5.60;99.90
59881;DHT22;45751;51.380;10.326;2022-12-18T17:54:24;-5.60;99.90
59881;DHT22;45751;51.380;10.326;2022-12-18T17:56:51;-5.60;99.90
59881;DHT22;45751;51.380;10.326;2022-12-18T17:59:17;-5.60;99.90
59881;DHT22;45751;51.380;10.326;2022-12-18T18:01:44;-5.60;99.90
59881;DHT22;45751;51.380;10.326;2022-12-18T18:04:13;-5.60;99.90
59881;DHT22;45751;51.380;10.326;2022-12-18T18:06:42;-5.50;99.90
59881;DHT22;45751;51.380;10.326;2022-12-18T18:09:12;-5.50;99.90
59881;DHT22;45751;51.380;10.326;2022-12-18T18:11:43;-5.50;99.90